sensor_id;sensor_type;location;lat;lon;timestamp;pressure;altitude;pressure_sealevel;temperature;humidity
15880;BME280;61999;51.514;14.614;2023-05-03T00:01:23;101000.69;;;3.66;44.22
15880;BME280;61999;51.514;14.614;2023-05-03T00:03:51;101002.13;;;3.74;43.90
15880;BME280;61999;51.514;14.614;2023-05-03T00:06:19;101005.53;;;3.77;44.26
15880;BME280;61999;51.514;14.614;2023-05-03T00:08:48;101008.81;;;3.82;44.21
15880;BME280;61999;51.514;14.614;2023-05-03T00:11:15;101009.50;;;3.87;43.64
15880;BME280;61999;51.514;14.614;2023-05-03T00:13:43;101010.22;;;3.90;43.78
15880;BME280;61999;51.514;14.614;2023-05-03T00:16:11;101014.44;;;3.94;43.79
15880;BME280;61999;51.514;14.614;2023-05-03T00:18:41;101010.84;;;3.73;45.24
15880;BME280;61999;51.514;14.614;2023-05-03T00:21:09;101017.66;;;3.52;46.23
15880;BME280;61999;51.514;14.614;2023-05-03T00:23:36;101014.50;;;3.43;46.35
15880;BME280;61999;51.514;14.614;2023-05-03T00:26:04;101013.44;;;3.22;47.44
15880;BME280;61999;51.514;14.614;2023-05-03T00:28:32;101015.88;;;3.53;45.75
15880;BME280;61999;51.514;14.614;2023-05-03T00:31:06;101012.09;;;3.62;45.35
15880;BME280;61999;51.514;14.614;2023-05-03T00:33:35;101013.72;;;3.41;46.27
15880;BME280;61999;51.514;14.614;2023-05-03T00:36:08;101006.16;;;3.58;45.70
15880;BME280;61999;51.514;14.614;2023-05-03T00:38:37;101007.81;;;3.61;45.30
15880;BME280;61999;51.514;14.614;2023-05-03T00:41:09;101007.06;;;2.77;48.73
15880;BME280;61999;51.514;14.614;2023-05-03T00:43:37;100999.19;;;3.34;46.30
15880;BME280;61999;51.514;14.614;2023-05-03T00:46:06;101000.88;;;3.35;46.49
15880;BME280;61999;51.514;14.614;2023-05-03T00:48:41;101002.22;;;3.46;45.96
15880;BME280;61999;51.514;14.614;2023-05-03T00:51:13;101009.78;;;3.54;45.15
15880;BME280;61999;51.514;14.614;2023-05-03T00:53:42;101007.06;;;3.57;45.00
15880;BME280;61999;51.514;14.614;2023-05-03T00:56:10;101002.84;;;3.53;45.10
15880;BME280;61999;51.514;14.614;2023-05-03T00:58:38;101006.25;;;3.55;45.19
15880;BME280;61999;51.514;14.614;2023-05-03T01:01:06;101005.28;;;3.59;44.86
15880;BME280;61999;51.514;14.614;2023-05-03T01:03:36;101007.81;;;3.61;44.84
15880;BME280;61999;51.514;14.614;2023-05-03T01:06:16;101007.88;;;3.59;45.36
15880;BME280;61999;51.514;14.614;2023-05-03T01:08:56;101008.84;;;3.57;45.08
15880;BME280;61999;51.514;14.614;2023-05-03T01:11:33;101005.28;;;3.59;44.92
15880;BME280;61999;51.514;14.614;2023-05-03T01:14:11;101004.34;;;3.60;44.70
15880;BME280;61999;51.514;14.614;2023-05-03T01:16:50;101006.16;;;3.58;44.96
15880;BME280;61999;51.514;14.614;2023-05-03T01:19:28;101004.47;;;3.57;44.43
15880;BME280;61999;51.514;14.614;2023-05-03T01:22:13;101004.56;;;3.54;44.87
15880;BME280;61999;51.514;14.614;2023-05-03T01:24:50;101007.22;;;3.52;44.64
15880;BME280;61999;51.514;14.614;2023-05-03T01:27:19;101010.88;;;3.47;44.95
15880;BME280;61999;51.514;14.614;2023-05-03T01:29:47;101007.75;;;3.37;44.58
15880;BME280;61999;51.514;14.614;2023-05-03T01:32:25;101002.75;;;3.31;44.86
15880;BME280;61999;51.514;14.614;2023-05-03T01:35:04;101007.25;;;3.24;44.84
15880;BME280;61999;51.514;14.614;2023-05-03T01:37:36;101000.56;;;3.17;44.95
15880;BME280;61999;51.514;14.614;2023-05-03T01:40:07;100998.94;;;3.13;44.88
15880;BME280;61999;51.514;14.614;2023-05-03T01:42:39;101003.41;;;3.10;44.62
15880;BME280;61999;51.514;14.614;2023-05-03T01:45:08;101006.25;;;3.02;45.32
15880;BME280;61999;51.514;14.614;2023-05-03T01:47:37;101006.38;;;2.99;45.04
15880;BME280;61999;51.514;14.614;2023-05-03T01:50:05;101007.28;;;2.98;45.01
15880;BME280;61999;51.514;14.614;2023-05-03T01:52:33;101001.25;;;2.96;44.84
15880;BME280;61999;51.514;14.614;2023-05-03T01:55:01;101003.19;;;2.91;44.73
15880;BME280;61999;51.514;14.614;2023-05-03T01:57:29;100994.66;;;2.85;44.93
15880;BME280;61999;51.514;14.614;2023-05-03T01:59:58;100990.41;;;2.83;44.84
15880;BME280;61999;51.514;14.614;2023-05-03T02:02:27;100995.81;;;2.77;45.24
15880;BME280;61999;51.514;14.614;2023-05-03T02:04:55;100992.47;;;2.72;44.97
15880;BME280;61999;51.514;14.614;2023-05-03T02:07:23;100996.94;;;2.68;44.88
15880;BME280;61999;51.514;14.614;2023-05-03T02:09:51;101002.41;;;2.59;45.14
15880;BME280;61999;51.514;14.614;2023-05-03T02:12:19;100992.47;;;2.44;46.24
15880;BME280;61999;51.514;14.614;2023-05-03T02:14:47;100992.66;;;2.37;46.10
15880;BME280;61999;51.514;14.614;2023-05-03T02:17:18;100984.13;;;2.32;45.42
15880;BME280;61999;51.514;14.614;2023-05-03T02:19:46;100996.41;;;2.27;45.59
15880;BME280;61999;51.514;14.614;2023-05-03T02:22:14;100983.88;;;2.12;46.33
15880;BME280;61999;51.514;14.614;2023-05-03T02:24:42;100988.34;;;2.07;46.45
15880;BME280;61999;51.514;14.614;2023-05-03T02:27:10;100990.16;;;2.05;46.25
15880;BME280;61999;51.514;14.614;2023-05-03T02:29:38;100994.63;;;2.00;46.28
15880;BME280;61999;51.514;14.614;2023-05-03T02:32:06;101000.00;;;1.93;46.10
15880;BME280;61999;51.514;14.614;2023-05-03T02:34:35;100997.50;;;1.90;46.20
15880;BME280;61999;51.514;14.614;2023-05-03T02:37:03;100996.78;;;1.85;45.92
15880;BME280;61999;51.514;14.614;2023-05-03T02:39:31;101000.28;;;1.83;45.83
15880;BME280;61999;51.514;14.614;2023-05-03T02:41:59;101000.31;;;1.81;45.76
15880;BME280;61999;51.514;14.614;2023-05-03T02:44:28;101001.28;;;1.77;45.79
15880;BME280;61999;51.514;14.614;2023-05-03T02:46:56;101012.97;;;0.92;51.11
15880;BME280;61999;51.514;14.614;2023-05-03T02:49:24;101027.75;;;-0.90;57.83
15880;BME280;61999;51.514;14.614;2023-05-03T02:51:54;101020.00;;;-0.90;59.94
15880;BME280;61999;51.514;14.614;2023-05-03T02:54:22;101010.09;;;0.27;54.49
15880;BME280;61999;51.514;14.614;2023-05-03T02:56:50;101012.56;;;0.72;51.87
15880;BME280;61999;51.514;14.614;2023-05-03T02:59:18;101017.28;;;0.93;50.58
15880;BME280;61999;51.514;14.614;2023-05-03T03:01:46;101012.63;;;1.08;49.52
15880;BME280;61999;51.514;14.614;2023-05-03T03:04:15;101014.97;;;1.17;49.32
15880;BME280;61999;51.514;14.614;2023-05-03T03:06:43;101012.97;;;1.28;48.85
15880;BME280;61999;51.514;14.614;2023-05-03T03:09:13;101007.63;;;1.34;48.28
15880;BME280;61999;51.514;14.614;2023-05-03T03:11:41;101008.38;;;1.38;48.27
15880;BME280;61999;51.514;14.614;2023-05-03T03:14:08;101014.56;;;0.98;50.83
15880;BME280;61999;51.514;14.614;2023-05-03T03:16:36;101010.03;;;1.08;50.62
15880;BME280;61999;51.514;14.614;2023-05-03T03:19:04;101009.63;;;1.23;49.45
15880;BME280;61999;51.514;14.614;2023-05-03T03:21:32;101016.31;;;1.33;49.48
15880;BME280;61999;51.514;14.614;2023-05-03T03:24:01;101016.25;;;1.36;48.90
15880;BME280;61999;51.514;14.614;2023-05-03T03:26:31;101020.38;;;1.43;48.59
15880;BME280;61999;51.514;14.614;2023-05-03T03:29:00;101021.97;;;1.49;47.86
15880;BME280;61999;51.514;14.614;2023-05-03T03:31:28;101029.06;;;1.07;51.58
15880;BME280;61999;51.514;14.614;2023-05-03T03:33:56;101034.75;;;1.22;50.08
15880;BME280;61999;51.514;14.614;2023-05-03T03:36:24;101033.44;;;1.40;48.67
15880;BME280;61999;51.514;14.614;2023-05-03T03:38:53;101043.00;;;1.38;49.73
15880;BME280;61999;51.514;14.614;2023-05-03T03:41:21;101045.78;;;0.96;51.86
15880;BME280;61999;51.514;14.614;2023-05-03T03:43:50;101053.72;;;1.24;50.35
15880;BME280;61999;51.514;14.614;2023-05-03T03:46:18;101042.41;;;1.27;49.91
15880;BME280;61999;51.514;14.614;2023-05-03T03:48:46;101044.00;;;1.34;49.05
15880;BME280;61999;51.514;14.614;2023-05-03T03:51:14;101049.09;;;1.37;49.38
15880;BME280;61999;51.514;14.614;2023-05-03T03:53:42;101052.72;;;1.30;49.74
15880;BME280;61999;51.514;14.614;2023-05-03T03:56:10;101046.44;;;1.39;48.99
15880;BME280;61999;51.514;14.614;2023-05-03T03:58:38;101047.25;;;1.42;49.25
15880;BME280;61999;51.514;14.614;2023-05-03T04:01:07;101058.44;;;1.44;49.19
15880;BME280;61999;51.514;14.614;2023-05-03T04:03:35;101060.91;;;1.50;49.01
15880;BME280;61999;51.514;14.614;2023-05-03T04:06:04;101060.81;;;1.54;48.75
15880;BME280;61999;51.514;14.614;2023-05-03T04:08:32;101059.81;;;1.59;48.92
15880;BME280;61999;51.514;14.614;2023-05-03T04:11:01;101069.22;;;1.65;48.79
15880;BME280;61999;51.514;14.614;2023-05-03T04:13:29;101075.94;;;1.72;48.48
15880;BME280;61999;51.514;14.614;2023-05-03T04:15:57;101074.09;;;1.77;49.05
15880;BME280;61999;51.514;14.614;2023-05-03T04:18:28;101084.41;;;1.80;48.73
15880;BME280;61999;51.514;14.614;2023-05-03T04:20:56;101082.50;;;1.88;48.58
15880;BME280;61999;51.514;14.614;2023-05-03T04:23:24;101092.63;;;1.98;48.77
15880;BME280;61999;51.514;14.614;2023-05-03T04:25:52;101094.34;;;1.99;49.21
15880;BME280;61999;51.514;14.614;2023-05-03T04:28:20;101091.50;;;2.08;48.86
15880;BME280;61999;51.514;14.614;2023-05-03T04:30:48;101087.75;;;2.18;48.92
15880;BME280;61999;51.514;14.614;2023-05-03T04:33:17;101085.91;;;2.22;49.33
15880;BME280;61999;51.514;14.614;2023-05-03T04:35:50;101098.72;;;2.29;48.81
15880;BME280;61999;51.514;14.614;2023-05-03T04:38:18;101096.84;;;2.34;48.85
15880;BME280;61999;51.514;14.614;2023-05-03T04:40:48;101093.13;;;2.43;48.47
15880;BME280;61999;51.514;14.614;2023-05-03T04:43:16;101099.06;;;2.48;48.45
15880;BME280;61999;51.514;14.614;2023-05-03T04:45:44;101105.03;;;2.52;48.92
15880;BME280;61999;51.514;14.614;2023-05-03T04:48:12;101102.28;;;2.56;48.86
15880;BME280;61999;51.514;14.614;2023-05-03T04:50:40;101101.16;;;2.65;48.65
15880;BME280;61999;51.514;14.614;2023-05-03T04:53:09;101111.31;;;2.74;48.68
15880;BME280;61999;51.514;14.614;2023-05-03T04:55:37;101104.13;;;2.82;48.48
15880;BME280;61999;51.514;14.614;2023-05-03T04:58:05;101097.09;;;2.84;48.52
15880;BME280;61999;51.514;14.614;2023-05-03T05:00:33;101097.63;;;2.96;48.22
15880;BME280;61999;51.514;14.614;2023-05-03T05:03:01;101100.91;;;2.74;49.51
15880;BME280;61999;51.514;14.614;2023-05-03T05:05:29;101105.41;;;2.97;48.86
15880;BME280;61999;51.514;14.614;2023-05-03T05:07:57;101106.97;;;3.03;48.92
15880;BME280;61999;51.514;14.614;2023-05-03T05:10:27;101096.91;;;3.19;48.36
15880;BME280;61999;51.514;14.614;2023-05-03T05:12:55;101097.41;;;3.32;48.24
15880;BME280;61999;51.514;14.614;2023-05-03T05:15:23;101105.75;;;3.43;47.98
15880;BME280;61999;51.514;14.614;2023-05-03T05:17:51;101108.84;;;3.54;47.70
15880;BME280;61999;51.514;14.614;2023-05-03T05:20:19;101111.28;;;3.59;48.04
15880;BME280;61999;51.514;14.614;2023-05-03T05:22:47;101118.97;;;2.79;49.67
15880;BME280;61999;51.514;14.614;2023-05-03T05:25:15;101123.09;;;1.94;52.04
15880;BME280;61999;51.514;14.614;2023-05-03T05:27:45;101129.88;;;1.26;56.14
15880;BME280;61999;51.514;14.614;2023-05-03T05:30:13;101131.38;;;0.99;56.18
15880;BME280;61999;51.514;14.614;2023-05-03T05:32:42;101139.00;;;1.79;52.31
15880;BME280;61999;51.514;14.614;2023-05-03T05:35:10;101135.09;;;1.98;52.51
15880;BME280;61999;51.514;14.614;2023-05-03T05:37:38;101132.75;;;2.53;50.75
15880;BME280;61999;51.514;14.614;2023-05-03T05:40:07;101135.41;;;2.51;51.35
15880;BME280;61999;51.514;14.614;2023-05-03T05:42:35;101136.44;;;3.05;49.53
15880;BME280;61999;51.514;14.614;2023-05-03T05:45:06;101124.56;;;2.96;48.83
15880;BME280;61999;51.514;14.614;2023-05-03T05:47:34;101136.97;;;1.56;52.59
15880;BME280;61999;51.514;14.614;2023-05-03T05:50:03;101144.88;;;2.54;51.00
15880;BME280;61999;51.514;14.614;2023-05-03T05:52:35;101135.69;;;2.72;49.13
15880;BME280;61999;51.514;14.614;2023-05-03T05:55:04;101129.78;;;2.95;49.46
15880;BME280;61999;51.514;14.614;2023-05-03T05:57:33;101133.41;;;3.47;48.20
15880;BME280;61999;51.514;14.614;2023-05-03T06:00:01;101143.16;;;3.12;47.90
15880;BME280;61999;51.514;14.614;2023-05-03T06:02:36;101144.47;;;2.04;50.56
15880;BME280;61999;51.514;14.614;2023-05-03T06:05:04;101144.81;;;2.55;49.62
15880;BME280;61999;51.514;14.614;2023-05-03T06:07:33;101150.63;;;2.95;48.88
15880;BME280;61999;51.514;14.614;2023-05-03T06:10:01;101146.69;;;3.11;47.46
15880;BME280;61999;51.514;14.614;2023-05-03T06:12:29;101151.69;;;2.58;48.12
15880;BME280;61999;51.514;14.614;2023-05-03T06:14:58;101155.78;;;2.35;48.16
15880;BME280;61999;51.514;14.614;2023-05-03T06:17:27;101156.28;;;2.17;49.02
15880;BME280;61999;51.514;14.614;2023-05-03T06:19:57;101161.06;;;2.95;47.03
15880;BME280;61999;51.514;14.614;2023-05-03T06:22:24;101157.44;;;2.99;47.90
15880;BME280;61999;51.514;14.614;2023-05-03T06:24:54;101145.88;;;3.07;47.22
15880;BME280;61999;51.514;14.614;2023-05-03T06:27:22;101156.91;;;2.58;47.66
15880;BME280;61999;51.514;14.614;2023-05-03T06:29:50;101147.75;;;3.34;47.14
15880;BME280;61999;51.514;14.614;2023-05-03T06:32:18;101154.31;;;3.17;48.69
15880;BME280;61999;51.514;14.614;2023-05-03T06:34:47;101163.50;;;3.57;47.58
15880;BME280;61999;51.514;14.614;2023-05-03T06:37:17;101155.63;;;3.85;46.88
15880;BME280;61999;51.514;14.614;2023-05-03T06:39:45;101156.91;;;3.98;46.21
15880;BME280;61999;51.514;14.614;2023-05-03T06:42:13;101163.91;;;2.25;50.38
15880;BME280;61999;51.514;14.614;2023-05-03T06:44:41;101159.22;;;2.67;47.60
15880;BME280;61999;51.514;14.614;2023-05-03T06:47:09;101162.78;;;1.65;51.05
15880;BME280;61999;51.514;14.614;2023-05-03T06:49:37;101155.22;;;1.54;52.08
15880;BME280;61999;51.514;14.614;2023-05-03T06:52:05;101158.41;;;2.96;49.84
15880;BME280;61999;51.514;14.614;2023-05-03T06:54:35;101166.28;;;3.23;48.41
15880;BME280;61999;51.514;14.614;2023-05-03T06:57:04;101166.16;;;2.98;49.02
15880;BME280;61999;51.514;14.614;2023-05-03T06:59:33;101177.53;;;2.64;49.43
15880;BME280;61999;51.514;14.614;2023-05-03T07:02:01;101171.41;;;2.35;48.82
15880;BME280;61999;51.514;14.614;2023-05-03T07:04:29;101173.16;;;2.35;49.73
15880;BME280;61999;51.514;14.614;2023-05-03T07:06:57;101175.78;;;2.01;50.16
15880;BME280;61999;51.514;14.614;2023-05-03T07:09:25;101166.88;;;3.33;48.61
15880;BME280;61999;51.514;14.614;2023-05-03T07:11:57;101154.22;;;3.19;48.70
15880;BME280;61999;51.514;14.614;2023-05-03T07:14:25;101171.56;;;2.92;48.67
15880;BME280;61999;51.514;14.614;2023-05-03T07:16:53;101171.81;;;2.20;49.47
15880;BME280;61999;51.514;14.614;2023-05-03T07:19:21;101172.09;;;3.33;48.52
15880;BME280;61999;51.514;14.614;2023-05-03T07:21:49;101174.22;;;2.59;48.47
15880;BME280;61999;51.514;14.614;2023-05-03T07:24:17;101168.81;;;3.81;47.49
15880;BME280;61999;51.514;14.614;2023-05-03T07:26:46;101167.13;;;3.80;47.25
15880;BME280;61999;51.514;14.614;2023-05-03T07:29:16;101166.81;;;4.39;45.21
15880;BME280;61999;51.514;14.614;2023-05-03T07:31:44;101157.28;;;4.38;44.54
15880;BME280;61999;51.514;14.614;2023-05-03T07:34:12;101162.59;;;4.11;42.97
15880;BME280;61999;51.514;14.614;2023-05-03T07:36:40;101161.75;;;3.29;45.26
15880;BME280;61999;51.514;14.614;2023-05-03T07:39:08;101158.94;;;4.15;44.86
15880;BME280;61999;51.514;14.614;2023-05-03T07:41:36;101163.09;;;4.46;44.89
15880;BME280;61999;51.514;14.614;2023-05-03T07:44:04;101161.34;;;4.72;43.99
15880;BME280;61999;51.514;14.614;2023-05-03T07:46:34;101157.44;;;4.33;43.01
15880;BME280;61999;51.514;14.614;2023-05-03T07:49:04;101152.59;;;5.40;42.68
15880;BME280;61999;51.514;14.614;2023-05-03T07:51:34;101153.06;;;5.94;42.28
15880;BME280;61999;51.514;14.614;2023-05-03T07:54:03;101156.53;;;6.34;42.00
15880;BME280;61999;51.514;14.614;2023-05-03T07:56:32;101157.91;;;6.63;41.97
15880;BME280;61999;51.514;14.614;2023-05-03T07:59:00;101157.03;;;6.62;40.49
15880;BME280;61999;51.514;14.614;2023-05-03T08:01:35;101157.47;;;6.72;39.15
15880;BME280;61999;51.514;14.614;2023-05-03T08:04:03;101149.63;;;6.72;39.24
15880;BME280;61999;51.514;14.614;2023-05-03T08:06:32;101145.72;;;7.19;37.79
15880;BME280;61999;51.514;14.614;2023-05-03T08:09:01;101157.06;;;7.19;38.44
15880;BME280;61999;51.514;14.614;2023-05-03T08:11:30;101149.16;;;7.74;38.51
15880;BME280;61999;51.514;14.614;2023-05-03T08:13:58;101152.53;;;7.76;36.96
15880;BME280;61999;51.514;14.614;2023-05-03T08:16:26;101145.75;;;8.07;37.85
15880;BME280;61999;51.514;14.614;2023-05-03T08:18:55;101149.28;;;6.99;36.97
15880;BME280;61999;51.514;14.614;2023-05-03T08:21:23;101151.06;;;6.98;35.49
15880;BME280;61999;51.514;14.614;2023-05-03T08:23:51;101150.31;;;6.57;36.04
15880;BME280;61999;51.514;14.614;2023-05-03T08:26:20;101151.44;;;6.31;34.78
15880;BME280;61999;51.514;14.614;2023-05-03T08:28:49;101151.13;;;6.38;37.14
15880;BME280;61999;51.514;14.614;2023-05-03T08:31:18;101146.16;;;7.28;35.46
15880;BME280;61999;51.514;14.614;2023-05-03T08:33:46;101148.22;;;7.75;35.95
15880;BME280;61999;51.514;14.614;2023-05-03T08:36:15;101146.63;;;6.61;35.49
15880;BME280;61999;51.514;14.614;2023-05-03T08:38:43;101145.03;;;7.51;36.06
15880;BME280;61999;51.514;14.614;2023-05-03T08:41:20;101149.00;;;8.12;34.87
15880;BME280;61999;51.514;14.614;2023-05-03T08:43:52;101150.50;;;8.34;35.28
15880;BME280;61999;51.514;14.614;2023-05-03T08:46:21;101151.41;;;7.28;33.21
15880;BME280;61999;51.514;14.614;2023-05-03T08:48:52;101151.84;;;5.59;38.00
15880;BME280;61999;51.514;14.614;2023-05-03T08:51:23;101157.09;;;6.61;35.54
15880;BME280;61999;51.514;14.614;2023-05-03T08:53:51;101150.41;;;7.85;36.08
15880;BME280;61999;51.514;14.614;2023-05-03T08:56:26;101151.16;;;8.04;35.53
15880;BME280;61999;51.514;14.614;2023-05-03T08:58:55;101152.66;;;8.43;34.55
15880;BME280;61999;51.514;14.614;2023-05-03T09:01:27;101160.84;;;6.95;33.71
15880;BME280;61999;51.514;14.614;2023-05-03T09:03:55;101162.66;;;7.30;35.36
15880;BME280;61999;51.514;14.614;2023-05-03T09:06:24;101161.13;;;8.48;33.79
15880;BME280;61999;51.514;14.614;2023-05-03T09:08:54;101154.16;;;8.64;34.30
15880;BME280;61999;51.514;14.614;2023-05-03T09:11:24;101152.69;;;8.08;33.61
15880;BME280;61999;51.514;14.614;2023-05-03T09:13:53;101151.56;;;8.47;33.02
15880;BME280;61999;51.514;14.614;2023-05-03T09:16:34;101158.00;;;8.41;31.90
15880;BME280;61999;51.514;14.614;2023-05-03T09:19:05;101169.41;;;6.98;33.58
15880;BME280;61999;51.514;14.614;2023-05-03T09:21:37;101159.22;;;7.65;33.79
15880;BME280;61999;51.514;14.614;2023-05-03T09:24:13;101145.13;;;9.18;33.25
15880;BME280;61999;51.514;14.614;2023-05-03T09:26:42;101153.63;;;9.07;31.96
15880;BME280;61999;51.514;14.614;2023-05-03T09:29:26;101164.06;;;9.86;30.70
15880;BME280;61999;51.514;14.614;2023-05-03T09:32:00;101154.19;;;9.28;30.48
15880;BME280;61999;51.514;14.614;2023-05-03T09:34:28;101148.56;;;9.50;30.17
15880;BME280;61999;51.514;14.614;2023-05-03T09:36:58;101154.69;;;8.38;30.30
15880;BME280;61999;51.514;14.614;2023-05-03T09:39:27;101156.75;;;7.62;32.11
15880;BME280;61999;51.514;14.614;2023-05-03T09:41:55;101163.38;;;7.88;31.67
15880;BME280;61999;51.514;14.614;2023-05-03T09:44:40;101161.28;;;7.41;33.47
15880;BME280;61999;51.514;14.614;2023-05-03T09:47:09;101153.19;;;8.65;31.71
15880;BME280;61999;51.514;14.614;2023-05-03T09:49:38;101160.38;;;8.79;31.88
15880;BME280;61999;51.514;14.614;2023-05-03T09:52:08;101151.50;;;9.75;30.26
15880;BME280;61999;51.514;14.614;2023-05-03T09:54:38;101149.06;;;10.45;31.17
15880;BME280;61999;51.514;14.614;2023-05-03T09:57:07;101146.06;;;9.63;31.16
15880;BME280;61999;51.514;14.614;2023-05-03T09:59:37;101149.63;;;8.17;31.33
15880;BME280;61999;51.514;14.614;2023-05-03T10:02:07;101144.97;;;8.22;32.91
15880;BME280;61999;51.514;14.614;2023-05-03T10:04:46;101141.84;;;10.35;28.90
15880;BME280;61999;51.514;14.614;2023-05-03T10:07:17;101134.69;;;8.51;29.27
15880;BME280;61999;51.514;14.614;2023-05-03T10:09:48;101136.06;;;10.14;29.27
15880;BME280;61999;51.514;14.614;2023-05-03T10:12:19;101130.81;;;9.69;28.29
15880;BME280;61999;51.514;14.614;2023-05-03T10:14:51;101131.59;;;10.00;28.53
15880;BME280;61999;51.514;14.614;2023-05-03T10:17:26;101129.16;;;11.78;28.03
15880;BME280;61999;51.514;14.614;2023-05-03T10:20:15;101130.88;;;12.93;26.68
15880;BME280;61999;51.514;14.614;2023-05-03T10:23:10;101128.13;;;13.67;26.14
15880;BME280;61999;51.514;14.614;2023-05-03T10:26:11;101119.72;;;13.13;26.69
15880;BME280;61999;51.514;14.614;2023-05-03T10:28:29;101122.84;;;12.58;26.75
15880;BME280;61999;51.514;14.614;2023-05-03T10:30:59;101117.72;;;13.28;27.14
15880;BME280;61999;51.514;14.614;2023-05-03T10:33:29;101124.59;;;12.06;28.62
15880;BME280;61999;51.514;14.614;2023-05-03T10:36:05;101125.81;;;12.27;28.36
15880;BME280;61999;51.514;14.614;2023-05-03T10:38:36;101118.59;;;12.55;26.96
15880;BME280;61999;51.514;14.614;2023-05-03T10:41:04;101113.78;;;13.34;26.99
15880;BME280;61999;51.514;14.614;2023-05-03T10:43:43;101116.25;;;13.83;25.94
15880;BME280;61999;51.514;14.614;2023-05-03T10:46:33;101111.16;;;12.60;23.48
15880;BME280;61999;51.514;14.614;2023-05-03T10:49:16;101116.50;;;13.92;25.63
15880;BME280;61999;51.514;14.614;2023-05-03T10:51:45;101106.19;;;14.79;24.08
15880;BME280;61999;51.514;14.614;2023-05-03T10:54:13;101108.66;;;15.67;23.68
15880;BME280;61999;51.514;14.614;2023-05-03T10:56:55;101112.50;;;15.21;21.99
15880;BME280;61999;51.514;14.614;2023-05-03T10:59:24;101107.34;;;16.03;21.10
15880;BME280;61999;51.514;14.614;2023-05-03T11:01:53;101103.97;;;17.23;22.26
15880;BME280;61999;51.514;14.614;2023-05-03T11:04:40;101108.88;;;18.23;20.48
15880;BME280;61999;51.514;14.614;2023-05-03T11:07:19;101106.31;;;18.86;19.97
15880;BME280;61999;51.514;14.614;2023-05-03T11:09:48;101102.63;;;18.32;20.61
15880;BME280;61999;51.514;14.614;2023-05-03T11:12:16;101110.81;;;17.74;21.00
15880;BME280;61999;51.514;14.614;2023-05-03T11:14:45;101102.50;;;16.89;21.77
15880;BME280;61999;51.514;14.614;2023-05-03T11:17:13;101104.56;;;15.63;22.62
15880;BME280;61999;51.514;14.614;2023-05-03T11:19:42;101104.66;;;15.73;20.87
15880;BME280;61999;51.514;14.614;2023-05-03T11:22:11;101108.25;;;15.72;21.79
15880;BME280;61999;51.514;14.614;2023-05-03T11:24:39;101106.22;;;16.27;22.19
15880;BME280;61999;51.514;14.614;2023-05-03T11:27:10;101101.31;;;17.23;20.96
15880;BME280;61999;51.514;14.614;2023-05-03T11:29:39;101103.41;;;18.52;21.18
15880;BME280;61999;51.514;14.614;2023-05-03T11:32:09;101107.94;;;16.38;18.94
15880;BME280;61999;51.514;14.614;2023-05-03T11:34:38;101094.16;;;16.23;20.03
15880;BME280;61999;51.514;14.614;2023-05-03T11:37:07;101092.47;;;17.22;19.05
15880;BME280;61999;51.514;14.614;2023-05-03T11:39:36;101096.06;;;17.89;18.83
15880;BME280;61999;51.514;14.614;2023-05-03T11:42:05;101091.00;;;17.96;19.54
15880;BME280;61999;51.514;14.614;2023-05-03T11:44:33;101095.78;;;18.85;17.86
15880;BME280;61999;51.514;14.614;2023-05-03T11:47:02;101099.00;;;17.67;17.85
15880;BME280;61999;51.514;14.614;2023-05-03T11:49:31;101102.56;;;18.14;18.86
15880;BME280;61999;51.514;14.614;2023-05-03T11:51:59;101095.50;;;17.76;18.72
15880;BME280;61999;51.514;14.614;2023-05-03T11:54:28;101087.31;;;15.57;22.15
15880;BME280;61999;51.514;14.614;2023-05-03T11:56:57;101102.28;;;15.37;21.93
15880;BME280;61999;51.514;14.614;2023-05-03T11:59:37;101103.09;;;15.17;21.50
15880;BME280;61999;51.514;14.614;2023-05-03T12:02:08;101108.03;;;16.57;21.25
15880;BME280;61999;51.514;14.614;2023-05-03T12:04:40;101103.53;;;18.23;20.48
15880;BME280;61999;51.514;14.614;2023-05-03T12:07:09;101102.06;;;18.93;20.06
15880;BME280;61999;51.514;14.614;2023-05-03T12:09:39;101103.06;;;18.65;19.14
15880;BME280;61999;51.514;14.614;2023-05-03T12:12:09;101093.13;;;19.21;18.74
15880;BME280;61999;51.514;14.614;2023-05-03T12:14:56;101092.28;;;20.93;17.43
15880;BME280;61999;51.514;14.614;2023-05-03T12:17:35;101088.47;;;21.20;18.62
15880;BME280;61999;51.514;14.614;2023-05-03T12:20:20;101086.09;;;22.46;15.30
15880;BME280;61999;51.514;14.614;2023-05-03T12:22:53;101080.28;;;21.46;16.21
15880;BME280;61999;51.514;14.614;2023-05-03T12:25:23;101081.00;;;23.52;16.44
15880;BME280;61999;51.514;14.614;2023-05-03T12:27:53;101075.09;;;25.03;16.07
15880;BME280;61999;51.514;14.614;2023-05-03T12:30:27;101074.03;;;24.46;16.09
15880;BME280;61999;51.514;14.614;2023-05-03T12:32:55;101083.22;;;25.81;15.42
15880;BME280;61999;51.514;14.614;2023-05-03T12:35:25;101081.16;;;26.72;15.43
15880;BME280;61999;51.514;14.614;2023-05-03T12:37:53;101068.22;;;27.87;14.60
15880;BME280;61999;51.514;14.614;2023-05-03T12:40:21;101071.75;;;28.53;12.92
15880;BME280;61999;51.514;14.614;2023-05-03T12:42:58;101073.09;;;28.75;13.83
15880;BME280;61999;51.514;14.614;2023-05-03T12:45:28;101068.63;;;28.04;13.33
15880;BME280;61999;51.514;14.614;2023-05-03T12:47:59;101073.91;;;28.38;12.90
15880;BME280;61999;51.514;14.614;2023-05-03T12:50:29;101073.78;;;28.64;12.00
15880;BME280;61999;51.514;14.614;2023-05-03T12:52:58;101072.41;;;27.97;13.18
15880;BME280;61999;51.514;14.614;2023-05-03T12:55:27;101065.72;;;25.77;13.74
15880;BME280;61999;51.514;14.614;2023-05-03T12:58:00;101062.88;;;25.07;13.79
15880;BME280;61999;51.514;14.614;2023-05-03T13:00:31;101060.59;;;24.31;13.78
15880;BME280;61999;51.514;14.614;2023-05-03T13:03:01;101052.06;;;24.13;13.97